エディンバラ の空港の天気 - METARとTAF

エディンバラ空港 ( EGPH / EDI ) - イギリス エディンバラ
飛行場実況気象(Metar)
観測時間01/16 18:20 GMT (01/16 18:20 UTC)
風向・風速西南西 7m/s
視程10km以上
天気現象
なし
気温5℃
湿度75%
気圧1027hPa
METAREGPH 161820Z 24013KT CAVOK 05/01 Q1027
過去の天気等 Google飛行場航空写真 Wunderground天気予報

過去48時間のMETAR

飛行場予報(TAF)
発表時間: 1/16 17:01 GMT (1/16 17:01 UTC)
予報対象時間: 16日18時 GMT ~ 17日18時 GMT
風向・風速西南西 6m/s
視程10km以上
なし
16日18時 GMT ~ 17日10時 GMT に一時的に
風向・風速西南西 8m/s 瞬間風速 13m/s
TAF EGPH 161701Z 1618/1718 24012KT CAVOK
TEMPO 1618/1710 25015G25KT